Time;durP1;ratioP1;P1;durP2;ratioP2;P2;SDS_P1;SDS_P2;PMS_P1;PMS_P2;Temp;Humidity;BMP_temperature;BMP_pressure;BME280_temperature;BME280_humidity;BME280_pressure;Samples;Min_cycle;Max_cycle;Signal;HPM_P1;HPM_P2
2022/10/13 00:01:56;;;;;;;27.27;13.10;;;11.50;99.90;;;;;;5050210;28;20185;-73
2022/10/13 00:04:21;;;;;;;24.13;13.60;;;11.60;99.90;;;;;;5048605;28;20214;-73
2022/10/13 00:06:47;;;;;;;26.30;13.87;;;11.70;99.90;;;;;;5048544;28;20558;-73
2022/10/13 00:09:12;;;;;;;21.60;14.03;;;11.80;99.90;;;;;;5050009;28;20224;-73
2022/10/13 00:11:38;;;;;;;28.37;14.23;;;11.80;99.90;;;;;;5050064;28;20226;-73
2022/10/13 00:14:04;;;;;;;29.87;14.90;;;11.80;99.90;;;;;;5049966;28;20256;-73
2022/10/13 00:16:31;;;;;;;23.90;12.03;;;11.70;99.90;;;;;;5049968;28;21045;-73
2022/10/13 00:18:57;;;;;;;34.73;14.10;;;11.80;99.90;;;;;;5049842;28;20187;-73
2022/10/13 00:21:24;;;;;;;23.50;11.77;;;11.80;99.90;;;;;;5049893;28;20511;-73
2022/10/13 00:23:52;;;;;;;24.83;12.50;;;11.80;99.90;;;;;;5049700;28;20440;-73
2022/10/13 00:26:19;;;;;;;28.10;15.10;;;11.90;99.90;;;;;;5049627;28;20435;-74
2022/10/13 00:28:45;;;;;;;29.30;13.80;;;11.80;99.90;;;;;;5049826;28;20427;-73
2022/10/13 00:31:30;;;;;;;28.63;12.53;;;11.80;99.90;;;;;;5049278;28;20476;-73
2022/10/13 00:34:00;;;;;;;25.27;13.60;;;11.60;99.90;;;;;;5049833;28;20766;-73
2022/10/13 00:36:26;;;;;;;20.87;12.40;;;11.50;99.90;;;;;;5049531;28;20893;-73
2022/10/13 00:38:53;;;;;;;25.13;13.93;;;11.40;99.90;;;;;;5047647;28;20428;-73
2022/10/13 00:41:20;;;;;;;30.37;12.37;;;11.40;99.90;;;;;;5049404;28;20517;-76
2022/10/13 00:44:25;;;;;;;31.67;13.50;;;11.40;99.90;;;;;;5049151;28;20849;-75
2022/10/13 00:46:50;;;;;;;24.17;14.00;;;11.40;99.90;;;;;;5047468;28;20959;-75
2022/10/13 00:49:16;;;;;;;27.67;14.53;;;11.30;99.90;;;;;;5048991;28;20421;-74
2022/10/13 00:51:46;;;;;;;26.80;13.40;;;11.40;99.90;;;;;;5047517;28;20219;-73
2022/10/13 00:54:16;;;;;;;22.80;13.60;;;11.40;99.90;;;;;;5047283;28;20436;-73
2022/10/13 00:56:44;;;;;;;28.43;13.20;;;11.40;99.90;;;;;;5049184;28;20479;-74
2022/10/13 00:59:21;;;;;;;21.27;12.30;;;11.50;99.90;;;;;;5047200;28;20444;-74
2022/10/13 01:01:46;;;;;;;25.40;13.90;;;11.50;99.90;;;;;;5048759;28;20447;-74
2022/10/13 01:04:12;;;;;;;26.40;14.50;;;11.50;99.90;;;;;;5048499;28;20483;-73
2022/10/13 01:06:39;;;;;;;24.93;14.47;;;11.50;99.90;;;;;;5048779;28;20707;-74
2022/10/13 01:09:04;;;;;;;30.67;14.70;;;11.40;99.90;;;;;;5047245;28;20255;-74
2022/10/13 01:12:07;;;;;;;24.20;13.40;;;11.50;99.90;;;;;;5047039;28;20694;-74
2022/10/13 01:14:39;;;;;;;28.07;13.93;;;11.50;99.90;;;;;;5048340;28;20226;-74
2022/10/13 01:17:48;;;;;;;21.77;13.80;;;11.50;99.90;;;;;;5046825;28;20427;-74
2022/10/13 01:20:53;;;;;;;30.17;13.60;;;11.50;99.90;;;;;;5048458;28;20416;-74
2022/10/13 01:23:42;;;;;;;21.87;13.00;;;11.40;99.90;;;;;;5048614;28;20411;-74
2022/10/13 01:26:08;;;;;;;26.23;14.67;;;11.30;99.90;;;;;;5046885;28;20569;-74
2022/10/13 01:29:21;;;;;;;32.80;13.37;;;11.30;99.90;;;;;;5048329;28;20427;-74
2022/10/13 01:32:07;;;;;;;30.27;12.67;;;11.30;99.90;;;;;;5028179;28;20950;-74
2022/10/13 01:34:43;;;;;;;27.03;13.73;;;11.30;99.90;;;;;;5048392;28;20450;-74
2022/10/13 01:37:25;;;;;;;24.93;13.80;;;11.20;99.90;;;;;;5048486;28;20515;-73
2022/10/13 01:40:03;;;;;;;23.40;13.90;;;11.20;99.90;;;;;;5048447;28;20415;-74
2022/10/13 01:42:35;;;;;;;30.70;13.27;;;11.10;99.90;;;;;;5048241;28;20411;-73
2022/10/13 01:45:02;;;;;;;30.70;13.03;;;11.10;99.90;;;;;;5048396;28;20475;-73
2022/10/13 01:47:30;;;;;;;26.30;14.20;;;11.10;99.90;;;;;;5047979;28;20417;-73
2022/10/13 01:49:56;;;;;;;34.13;14.33;;;11.10;99.90;;;;;;5048245;28;20461;-74
2022/10/13 01:52:26;;;;;;;25.97;14.30;;;11.10;99.90;;;;;;5048141;28;20475;-73
2022/10/13 01:54:53;;;;;;;26.10;13.47;;;11.10;99.90;;;;;;5048052;28;20458;-74
2022/10/13 01:57:33;;;;;;;25.97;13.80;;;11.20;99.90;;;;;;5046412;28;20445;-74
2022/10/13 02:00:08;;;;;;;27.13;13.83;;;11.40;99.90;;;;;;5047975;28;20429;-74
2022/10/13 02:02:43;;;;;;;24.57;13.60;;;11.30;99.90;;;;;;5047446;28;20425;-74
2022/10/13 02:05:27;;;;;;;31.43;13.33;;;11.30;99.90;;;;;;5047296;28;20435;-74
2022/10/13 02:08:17;;;;;;;28.60;13.93;;;11.30;99.90;;;;;;5045127;28;20432;-74
2022/10/13 02:11:18;;;;;;;29.30;14.57;;;11.30;99.90;;;;;;5047327;28;20463;-73
2022/10/13 02:14:05;;;;;;;28.80;14.37;;;11.40;99.90;;;;;;5045779;28;20516;-73
2022/10/13 02:16:35;;;;;;;21.03;12.23;;;11.40;99.90;;;;;;5046308;28;20429;-74
2022/10/13 02:19:04;;;;;;;28.23;13.30;;;11.40;99.90;;;;;;5047312;28;20996;-74
2022/10/13 02:21:30;;;;;;;25.30;12.73;;;11.30;99.90;;;;;;5045703;28;20420;-74
2022/10/13 02:23:56;;;;;;;24.30;13.20;;;11.50;99.90;;;;;;5047063;28;20432;-74
2022/10/13 02:26:22;;;;;;;29.43;15.00;;;11.40;99.90;;;;;;5047312;28;20489;-74
2022/10/13 02:28:47;;;;;;;23.37;13.73;;;11.40;99.90;;;;;;5046983;28;20427;-73
2022/10/13 02:31:13;;;;;;;22.43;13.97;;;11.40;99.90;;;;;;5045837;28;20235;-73
2022/10/13 02:33:39;;;;;;;25.23;13.13;;;11.40;99.90;;;;;;5047031;28;20186;-72
2022/10/13 02:36:04;;;;;;;27.03;15.00;;;11.40;99.90;;;;;;5047638;28;20198;-73
2022/10/13 02:38:30;;;;;;;34.40;14.67;;;11.40;99.90;;;;;;5047640;28;20180;-74
2022/10/13 02:40:55;;;;;;;18.53;12.70;;;11.50;99.90;;;;;;5047059;28;20215;-74
2022/10/13 02:43:21;;;;;;;30.80;14.47;;;11.60;99.90;;;;;;5046945;28;20273;-75
2022/10/13 02:45:46;;;;;;;24.80;14.40;;;11.60;99.90;;;;;;5045516;28;20255;-74
2022/10/13 02:48:12;;;;;;;27.77;14.17;;;11.50;99.90;;;;;;5045402;28;20280;-74
2022/10/13 02:50:38;;;;;;;26.90;14.97;;;11.60;99.90;;;;;;5046874;28;20224;-74
2022/10/13 02:53:03;;;;;;;30.70;15.07;;;11.60;99.90;;;;;;5046871;28;20198;-74
2022/10/13 02:55:29;;;;;;;28.17;15.43;;;11.60;99.90;;;;;;5046614;28;20215;-75
2022/10/13 02:57:54;;;;;;;30.70;14.33;;;11.70;99.90;;;;;;5046644;28;20234;-75
2022/10/13 03:00:20;;;;;;;27.10;15.27;;;11.50;99.90;;;;;;5046829;28;20241;-75
2022/10/13 03:02:46;;;;;;;24.97;14.20;;;11.60;99.90;;;;;;5046462;28;20239;-75
2022/10/13 03:05:11;;;;;;;26.33;14.87;;;11.60;99.90;;;;;;5046435;28;20320;-74
2022/10/13 03:07:37;;;;;;;26.50;14.30;;;11.60;99.90;;;;;;5046759;28;20427;-74
2022/10/13 03:10:04;;;;;;;26.57;13.97;;;11.60;99.90;;;;;;5044957;28;20557;-74
2022/10/13 03:12:29;;;;;;;29.23;14.77;;;11.70;99.90;;;;;;5046532;28;20195;-74
2022/10/13 03:14:55;;;;;;;28.13;13.63;;;11.60;99.90;;;;;;5046580;28;21233;-75
2022/10/13 03:17:20;;;;;;;23.83;14.47;;;11.50;99.90;;;;;;5028714;28;20190;-75
2022/10/13 03:19:47;;;;;;;25.87;13.90;;;11.50;99.90;;;;;;5050312;28;20692;-75
2022/10/13 03:22:14;;;;;;;27.60;15.90;;;11.50;99.90;;;;;;5050469;28;20214;-75
2022/10/13 03:24:40;;;;;;;25.90;14.73;;;11.50;99.90;;;;;;5050616;28;20444;-75
2022/10/13 03:27:05;;;;;;;27.90;14.43;;;11.60;99.90;;;;;;5050722;28;20417;-75
2022/10/13 03:29:31;;;;;;;29.17;15.60;;;11.60;99.90;;;;;;5051040;28;20421;-75
2022/10/13 03:31:57;;;;;;;28.93;14.50;;;11.60;99.90;;;;;;5051954;28;20257;-75
2022/10/13 03:34:22;;;;;;;20.83;13.63;;;11.70;99.90;;;;;;5051220;28;20234;-76
2022/10/13 03:36:48;;;;;;;26.97;14.93;;;11.70;99.90;;;;;;5034114;28;20193;-75
2022/10/13 03:39:13;;;;;;;22.10;13.97;;;11.70;99.90;;;;;;5052003;28;20190;-75
2022/10/13 03:41:39;;;;;;;30.00;16.00;;;11.70;99.90;;;;;;5050654;28;20190;-74
2022/10/13 03:44:06;;;;;;;24.07;14.40;;;11.70;99.90;;;;;;5051994;28;20682;-74
2022/10/13 03:46:32;;;;;;;26.43;15.57;;;11.70;99.90;;;;;;5051959;28;20185;-75
2022/10/13 03:48:58;;;;;;;28.40;14.93;;;11.70;99.90;;;;;;5051907;28;20420;-75
2022/10/13 03:51:24;;;;;;;27.97;13.30;;;11.80;99.90;;;;;;5051563;28;20480;-76
2022/10/13 03:53:50;;;;;;;24.33;13.33;;;11.90;99.90;;;;;;5051568;28;20243;-76
2022/10/13 03:56:19;;;;;;;24.87;12.90;;;11.90;99.90;;;;;;5050562;28;20458;-76
2022/10/13 03:58:45;;;;;;;30.53;14.27;;;12.00;99.90;;;;;;5050311;28;20854;-76
2022/10/13 04:01:12;;;;;;;27.83;14.60;;;11.90;99.90;;;;;;5048901;28;20421;-74
2022/10/13 04:03:38;;;;;;;32.77;14.53;;;12.00;99.90;;;;;;5050628;28;20221;-76
2022/10/13 04:06:04;;;;;;;28.87;13.93;;;12.10;99.90;;;;;;5048894;28;20445;-75
2022/10/13 04:08:31;;;;;;;19.47;11.27;;;12.10;99.90;;;;;;5050398;28;20266;-76
2022/10/13 04:10:59;;;;;;;20.60;12.43;;;12.20;99.90;;;;;;5050126;28;20452;-75
2022/10/13 04:13:24;;;;;;;23.47;13.17;;;12.30;99.90;;;;;;5049831;28;20458;-75
2022/10/13 04:15:50;;;;;;;23.30;12.87;;;12.30;99.90;;;;;;5048299;28;20441;-75
2022/10/13 04:18:15;;;;;;;23.97;13.50;;;12.20;99.90;;;;;;5048266;28;20670;-75
2022/10/13 04:20:41;;;;;;;29.00;11.77;;;12.10;99.90;;;;;;5032376;28;20189;-77
2022/10/13 04:23:07;;;;;;;24.33;13.70;;;12.10;99.90;;;;;;5049063;28;20289;-77
2022/10/13 04:25:37;;;;;;;25.97;14.97;;;12.20;99.90;;;;;;5048877;28;20221;-76
2022/10/13 04:28:04;;;;;;;21.90;13.53;;;12.20;99.90;;;;;;5032242;28;20202;-77
2022/10/13 04:30:32;;;;;;;18.93;11.40;;;12.10;99.90;;;;;;5048140;28;20465;-76
2022/10/13 04:32:58;;;;;;;30.07;15.60;;;12.10;99.90;;;;;;5050193;28;20417;-77
2022/10/13 04:35:23;;;;;;;22.97;13.50;;;12.00;99.90;;;;;;5050081;28;20801;-77
2022/10/13 04:37:49;;;;;;;22.40;13.43;;;12.00;99.90;;;;;;5032351;28;20682;-77
2022/10/13 04:40:15;;;;;;;21.40;12.23;;;12.00;99.90;;;;;;5051163;28;20190;-76
2022/10/13 04:42:40;;;;;;;19.60;12.30;;;12.00;99.90;;;;;;5051240;28;20685;-77
2022/10/13 04:45:07;;;;;;;29.30;13.07;;;12.00;99.90;;;;;;5033536;28;20203;-77
2022/10/13 04:47:34;;;;;;;20.10;13.47;;;11.90;99.90;;;;;;5051018;28;20672;-76
2022/10/13 04:49:59;;;;;;;22.80;13.50;;;11.90;99.90;;;;;;5049163;28;20459;-76
2022/10/13 04:52:25;;;;;;;22.03;12.77;;;12.10;99.90;;;;;;5050562;28;20424;-77
2022/10/13 04:54:51;;;;;;;33.07;11.80;;;11.90;99.90;;;;;;5050519;28;20244;-76
2022/10/13 04:57:16;;;;;;;27.03;12.90;;;11.90;99.90;;;;;;5050156;28;20198;-77
2022/10/13 04:59:42;;;;;;;22.10;12.80;;;11.90;99.90;;;;;;5050110;28;20190;-77
2022/10/13 05:02:09;;;;;;;19.00;12.70;;;11.90;99.90;;;;;;5048715;28;20255;-76
2022/10/13 05:04:35;;;;;;;24.37;12.27;;;12.00;99.90;;;;;;5048461;28;20626;-76
2022/10/13 05:07:00;;;;;;;20.23;12.30;;;11.70;99.90;;;;;;5050002;28;20412;-77
2022/10/13 05:09:26;;;;;;;24.73;12.23;;;11.70;99.90;;;;;;5050097;28;20492;-76
2022/10/13 05:11:53;;;;;;;31.63;14.60;;;11.80;99.90;;;;;;5050260;28;20225;-76
2022/10/13 05:14:20;;;;;;;27.63;14.80;;;11.60;99.90;;;;;;5050265;28;20456;-77
2022/10/13 05:16:46;;;;;;;27.57;15.37;;;11.60;99.90;;;;;;5049765;28;20412;-77
2022/10/13 05:19:12;;;;;;;22.10;14.30;;;11.60;99.90;;;;;;5049830;28;20474;-77
2022/10/13 05:21:38;;;;;;;27.03;14.23;;;11.60;99.90;;;;;;5031625;28;21022;-77
2022/10/13 05:24:05;;;;;;;27.53;13.80;;;11.70;99.90;;;;;;5049581;28;20269;-77
2022/10/13 05:26:35;;;;;;;26.70;13.57;;;11.60;99.90;;;;;;5049667;28;20791;-77
2022/10/13 05:29:01;;;;;;;21.37;14.90;;;11.60;99.90;;;;;;5047838;28;20483;-76
2022/10/13 05:31:29;;;;;;;23.67;14.20;;;11.60;99.90;;;;;;5047940;28;20511;-77
2022/10/13 05:33:55;;;;;;;22.30;13.67;;;11.50;99.90;;;;;;5048491;28;20428;-76
2022/10/13 05:36:28;;;;;;;25.37;14.67;;;11.50;99.90;;;;;;5048270;28;20419;-77
2022/10/13 05:38:56;;;;;;;21.60;13.80;;;11.50;99.90;;;;;;5048267;28;20422;-77
2022/10/13 05:41:23;;;;;;;27.77;14.30;;;11.40;99.90;;;;;;5047269;28;20479;-76
2022/10/13 05:43:52;;;;;;;28.17;13.90;;;11.50;99.90;;;;;;5048003;28;20424;-77
2022/10/13 05:46:17;;;;;;;22.27;14.60;;;11.50;99.90;;;;;;5046525;28;20480;-76
2022/10/13 05:48:43;;;;;;;25.97;13.50;;;11.50;99.90;;;;;;5030167;28;20472;-76
2022/10/13 05:51:16;;;;;;;23.93;12.60;;;11.50;99.90;;;;;;5049027;28;20771;-75
2022/10/13 05:53:46;;;;;;;30.17;13.93;;;11.50;99.90;;;;;;5048192;28;20185;-78
2022/10/13 05:56:18;;;;;;;22.13;13.60;;;11.50;99.90;;;;;;5047985;28;21010;-75
2022/10/13 05:58:47;;;;;;;27.60;13.30;;;11.40;99.90;;;;;;5048946;28;20932;-76
2022/10/13 06:01:16;;;;;;;24.43;13.97;;;11.40;99.90;;;;;;5048477;28;20459;-77
2022/10/13 06:03:43;;;;;;;31.83;13.10;;;11.30;99.90;;;;;;5048999;28;20434;-76
2022/10/13 06:06:09;;;;;;;21.77;13.43;;;11.30;99.90;;;;;;5047191;28;20463;-75
2022/10/13 06:08:36;;;;;;;21.63;12.73;;;11.30;99.90;;;;;;5048858;28;20419;-75
2022/10/13 06:11:03;;;;;;;22.50;13.47;;;11.30;99.90;;;;;;5047498;28;20308;-76
2022/10/13 06:13:29;;;;;;;28.73;14.13;;;11.30;99.90;;;;;;5048884;28;20511;-76
2022/10/13 06:15:54;;;;;;;25.70;15.87;;;11.30;99.90;;;;;;5047463;28;21131;-75
2022/10/13 06:18:20;;;;;;;44.20;21.37;;;11.50;99.90;;;;;;5048959;28;20228;-77
2022/10/13 06:20:45;;;;;;;33.20;18.43;;;11.30;99.90;;;;;;5047659;28;20232;-76
2022/10/13 06:23:11;;;;;;;35.60;16.90;;;11.40;99.90;;;;;;5049625;28;20215;-76
2022/10/13 06:25:37;;;;;;;33.20;20.03;;;11.30;99.90;;;;;;5049260;28;20210;-77
2022/10/13 06:28:03;;;;;;;38.43;21.43;;;11.30;99.90;;;;;;5049388;28;20187;-76
2022/10/13 06:30:29;;;;;;;33.77;19.27;;;11.30;99.90;;;;;;5031042;28;20475;-76
2022/10/13 06:32:55;;;;;;;31.10;13.77;;;11.40;99.90;;;;;;5031254;28;20188;-77
2022/10/13 06:35:22;;;;;;;24.90;15.47;;;11.50;99.90;;;;;;5047735;28;20292;-77
2022/10/13 06:37:48;;;;;;;26.80;14.13;;;11.60;99.90;;;;;;5049172;28;20442;-76
2022/10/13 06:40:14;;;;;;;19.13;12.17;;;11.70;99.90;;;;;;5047598;28;20965;-76
2022/10/13 06:42:40;;;;;;;27.03;14.23;;;11.80;99.90;;;;;;5049091;28;20186;-76
2022/10/13 06:45:06;;;;;;;19.37;11.77;;;11.90;99.90;;;;;;5047473;28;20516;-76
2022/10/13 06:47:31;;;;;;;23.40;11.77;;;12.10;99.90;;;;;;5049144;28;20186;-77
2022/10/13 06:49:57;;;;;;;19.30;12.27;;;12.00;99.90;;;;;;5049494;28;20463;-77
2022/10/13 06:52:22;;;;;;;22.10;11.20;;;12.00;99.90;;;;;;5050971;28;20187;-76
2022/10/13 06:54:48;;;;;;;18.47;11.27;;;12.10;99.90;;;;;;5051369;28;20203;-77
2022/10/13 06:57:13;;;;;;;21.00;12.43;;;12.10;99.90;;;;;;5050468;28;20227;-77
2022/10/13 06:59:39;;;;;;;16.90;10.13;;;12.10;99.90;;;;;;5016771;28;20220;-77
2022/10/13 07:02:05;;;;;;;20.20;11.23;;;12.10;99.90;;;;;;5050825;28;20627;-77
2022/10/13 07:04:30;;;;;;;20.07;10.83;;;12.10;99.90;;;;;;5050796;28;20221;-77
2022/10/13 07:06:56;;;;;;;19.47;11.20;;;12.20;99.90;;;;;;5050828;28;20185;-77
2022/10/13 07:09:22;;;;;;;15.00;10.13;;;12.20;99.90;;;;;;5050875;28;20236;-76
2022/10/13 07:11:49;;;;;;;16.77;10.87;;;12.20;99.90;;;;;;5050700;28;20213;-77
2022/10/13 07:14:14;;;;;;;18.27;11.80;;;12.30;99.90;;;;;;5050632;28;20245;-77
2022/10/13 07:16:40;;;;;;;22.20;11.10;;;12.40;99.90;;;;;;5050764;28;20442;-77
2022/10/13 07:19:06;;;;;;;18.63;9.87;;;12.50;99.90;;;;;;5050627;28;20201;-77
2022/10/13 07:21:31;;;;;;;27.67;10.00;;;12.70;99.90;;;;;;5049160;28;20186;-76
2022/10/13 07:23:57;;;;;;;17.80;10.43;;;12.80;99.90;;;;;;5048815;28;20985;-77
2022/10/13 07:26:23;;;;;;;14.97;8.60;;;12.80;99.90;;;;;;5050957;28;20189;-77
2022/10/13 07:28:48;;;;;;;15.20;8.90;;;13.00;99.90;;;;;;5050366;28;20191;-77
2022/10/13 07:31:17;;;;;;;21.07;8.97;;;13.20;99.90;;;;;;5032378;28;20714;-77
2022/10/13 07:33:44;;;;;;;15.83;8.90;;;13.30;99.90;;;;;;5050551;28;20232;-76
2022/10/13 07:36:11;;;;;;;15.67;9.50;;;13.40;99.90;;;;;;5050701;28;20438;-76
2022/10/13 07:38:37;;;;;;;13.60;8.50;;;13.40;99.90;;;;;;5050428;28;20441;-77
2022/10/13 07:41:04;;;;;;;18.30;8.77;;;13.50;99.90;;;;;;5050784;28;20932;-76
2022/10/13 07:43:30;;;;;;;14.77;8.57;;;13.50;99.90;;;;;;5050685;28;20562;-75
2022/10/13 07:46:03;;;;;;;14.60;8.80;;;13.20;99.90;;;;;;5050372;28;20516;-77
2022/10/13 07:48:29;;;;;;;12.53;8.00;;;13.30;99.90;;;;;;5048864;28;20802;-77
2022/10/13 07:50:54;;;;;;;15.33;8.17;;;13.20;99.90;;;;;;5050268;28;20464;-76
2022/10/13 07:53:20;;;;;;;12.03;7.70;;;13.40;99.90;;;;;;5050615;28;20176;-76
2022/10/13 07:55:46;;;;;;;12.13;7.30;;;13.40;99.90;;;;;;5016153;28;20254;-76
2022/10/13 07:58:11;;;;;;;17.83;7.47;;;13.50;99.90;;;;;;5050383;28;20732;-76
2022/10/13 08:00:37;;;;;;;10.23;8.47;;;13.50;99.90;;;;;;5048939;28;20192;-76
2022/10/13 08:03:03;;;;;;;11.50;7.30;;;13.40;99.90;;;;;;5050358;28;20192;-75
2022/10/13 08:05:28;;;;;;;11.50;8.43;;;13.40;99.90;;;;;;5049398;28;20204;-77
2022/10/13 08:07:54;;;;;;;14.20;8.37;;;13.40;99.90;;;;;;5050083;28;20180;-77
2022/10/13 08:10:20;;;;;;;16.67;8.87;;;13.40;99.90;;;;;;5050421;28;20215;-77
2022/10/13 08:12:46;;;;;;;12.97;8.60;;;13.50;99.90;;;;;;5048574;28;20190;-77
2022/10/13 08:15:11;;;;;;;17.07;8.37;;;13.40;99.90;;;;;;5050385;28;20247;-77
2022/10/13 08:17:37;;;;;;;13.27;7.50;;;13.50;99.90;;;;;;5048728;28;20178;-77
2022/10/13 08:20:05;;;;;;;13.27;8.07;;;13.60;99.90;;;;;;5048720;28;20196;-77
2022/10/13 08:22:33;;;;;;;14.90;8.03;;;13.70;99.90;;;;;;5049959;28;20187;-77
2022/10/13 08:25:00;;;;;;;21.60;8.30;;;13.80;99.90;;;;;;5048509;28;20556;-77
2022/10/13 08:27:26;;;;;;;17.23;7.00;;;14.10;99.90;;;;;;5049809;28;20414;-77
2022/10/13 08:29:53;;;;;;;12.27;6.27;;;14.30;99.90;;;;;;5050007;28;20560;-77
2022/10/13 08:32:20;;;;;;;20.80;7.20;;;14.40;99.90;;;;;;5048585;28;20582;-76
2022/10/13 08:34:46;;;;;;;12.60;7.00;;;14.50;99.90;;;;;;5048447;28;20438;-76
2022/10/13 08:37:13;;;;;;;14.53;6.63;;;14.40;99.90;;;;;;5049396;28;20946;-76
2022/10/13 08:39:39;;;;;;;13.67;6.73;;;14.40;99.90;;;;;;5048408;28;20419;-75
2022/10/13 08:42:16;;;;;;;15.23;6.97;;;14.60;99.90;;;;;;5049751;28;20422;-77
2022/10/13 08:44:45;;;;;;;12.33;7.50;;;14.60;99.90;;;;;;5049777;28;20903;-77
2022/10/13 08:47:23;;;;;;;11.93;6.83;;;14.50;99.90;;;;;;5049748;28;20434;-77
2022/10/13 08:49:49;;;;;;;10.03;6.50;;;14.40;99.90;;;;;;5049382;28;20841;-77
2022/10/13 08:52:24;;;;;;;12.53;6.73;;;14.60;99.90;;;;;;5049499;28;20464;-76
2022/10/13 08:54:50;;;;;;;10.07;6.47;;;14.80;99.90;;;;;;5049439;28;20437;-77
2022/10/13 08:57:16;;;;;;;14.03;7.03;;;14.80;99.90;;;;;;5047761;28;20503;-76
2022/10/13 08:59:41;;;;;;;11.90;7.00;;;14.80;99.90;;;;;;5049565;28;20506;-76
2022/10/13 09:02:29;;;;;;;15.77;7.00;;;15.00;99.90;;;;;;5049779;28;20987;-74
2022/10/13 09:05:00;;;;;;;14.03;7.10;;;15.00;99.90;;;;;;5049799;28;20203;-74
2022/10/13 09:07:33;;;;;;;14.57;6.87;;;15.30;99.90;;;;;;5049119;28;20501;-74
2022/10/13 09:09:59;;;;;;;14.90;6.67;;;15.50;99.90;;;;;;5049007;28;20423;-73
2022/10/13 09:12:25;;;;;;;14.73;6.67;;;15.40;99.90;;;;;;5048911;28;20903;-74
2022/10/13 09:15:10;;;;;;;13.10;6.57;;;15.70;99.90;;;;;;5048973;28;20775;-74
2022/10/13 09:17:37;;;;;;;8.50;6.00;;;15.80;99.90;;;;;;5048957;28;20418;-74
2022/10/13 09:20:23;;;;;;;9.67;5.57;;;16.00;99.90;;;;;;5048900;28;20427;-75
2022/10/13 09:23:23;;;;;;;11.90;6.50;;;16.10;99.90;;;;;;5049802;28;20494;-74
2022/10/13 09:25:51;;;;;;;13.37;6.00;;;15.90;99.90;;;;;;5048602;28;20462;-74
2022/10/13 09:28:22;;;;;;;15.17;6.80;;;16.00;99.90;;;;;;5049154;28;20416;-74
2022/10/13 09:31:00;;;;;;;26.70;6.20;;;16.00;99.90;;;;;;5050663;28;20972;-74
2022/10/13 09:33:25;;;;;;;7.57;5.27;;;16.10;99.90;;;;;;5051421;28;20402;-75
2022/10/13 09:36:05;;;;;;;15.97;7.07;;;16.10;99.90;;;;;;5049999;28;20443;-75
2022/10/13 09:38:31;;;;;;;10.93;6.17;;;16.00;99.90;;;;;;5050935;28;20177;-74
2022/10/13 09:41:05;;;;;;;14.37;7.47;;;16.10;99.90;;;;;;5051469;28;20768;-73
2022/10/13 09:43:57;;;;;;;14.20;6.40;;;15.90;99.90;;;;;;5050775;28;20419;-76
2022/10/13 09:46:28;;;;;;;8.97;5.60;;;16.10;99.90;;;;;;5044695;28;20464;-76
2022/10/13 09:49:33;;;;;;;12.87;5.67;;;16.00;99.90;;;;;;5050588;28;20423;-76
2022/10/13 09:52:11;;;;;;;10.50;5.50;;;16.20;99.90;;;;;;5049036;28;20482;-76
2022/10/13 09:54:47;;;;;;;13.00;6.40;;;16.30;99.90;;;;;;5049014;28;21019;-75
2022/10/13 09:57:19;;;;;;;10.83;5.60;;;16.40;99.90;;;;;;5049669;28;20851;-75
2022/10/13 10:00:00;;;;;;;10.60;6.23;;;16.40;99.90;;;;;;5049386;28;20468;-76
2022/10/13 10:02:36;;;;;;;11.07;5.73;;;16.20;99.90;;;;;;5047558;28;20431;-77
2022/10/13 10:05:17;;;;;;;11.30;5.50;;;16.30;99.90;;;;;;5047419;28;20456;-77
2022/10/13 10:07:44;;;;;;;11.07;6.00;;;16.30;99.90;;;;;;5048274;28;20562;-75
2022/10/13 10:10:25;;;;;;;10.53;6.20;;;16.30;99.90;;;;;;5048282;28;20870;-75
2022/10/13 10:12:51;;;;;;;15.73;6.00;;;16.30;99.90;;;;;;5048270;28;20514;-75
2022/10/13 10:15:23;;;;;;;9.77;6.33;;;16.40;99.90;;;;;;5047767;28;20523;-75
2022/10/13 10:17:58;;;;;;;11.67;5.10;;;16.40;99.90;;;;;;5046673;28;20186;-75
2022/10/13 10:20:34;;;;;;;9.30;5.20;;;16.50;99.90;;;;;;5048065;28;20432;-75
2022/10/13 10:23:04;;;;;;;11.73;6.03;;;16.80;99.90;;;;;;5048235;28;20421;-75
2022/10/13 10:25:38;;;;;;;7.07;5.50;;;17.00;99.90;;;;;;5047648;28;20444;-75
2022/10/13 10:28:12;;;;;;;9.43;6.63;;;17.10;99.90;;;;;;5050946;28;20417;-75
2022/10/13 10:30:46;;;;;;;9.70;6.90;;;17.10;99.90;;;;;;5052805;28;20457;-74
2022/10/13 10:33:18;;;;;;;16.90;7.70;;;17.00;99.90;;;;;;5053103;28;20420;-74
2022/10/13 10:36:07;;;;;;;20.90;9.00;;;17.10;99.90;;;;;;5054002;28;21130;-74
2022/10/13 10:38:33;;;;;;;20.30;8.77;;;16.90;99.90;;;;;;5053981;28;20412;-76
2022/10/13 10:41:01;;;;;;;14.37;8.60;;;16.80;99.90;;;;;;5054170;28;20417;-75
2022/10/13 10:43:42;;;;;;;12.60;7.73;;;16.70;99.90;;;;;;5053976;28;20688;-75
2022/10/13 10:46:35;;;;;;;9.87;8.13;;;16.70;99.90;;;;;;5054178;28;20948;-74
2022/10/13 10:49:10;;;;;;;21.83;9.87;;;16.70;99.90;;;;;;5050232;28;20492;-75
2022/10/13 10:51:38;;;;;;;12.30;8.37;;;16.60;99.90;;;;;;5054160;28;20890;-75
2022/10/13 10:54:28;;;;;;;11.50;7.93;;;16.50;99.90;;;;;;5054160;28;20523;-75
2022/10/13 10:57:09;;;;;;;12.47;8.40;;;16.50;99.90;;;;;;5053958;28;20468;-74
2022/10/13 11:00:05;;;;;;;15.30;8.37;;;16.40;99.90;;;;;;5054558;28;20814;-75
2022/10/13 11:03:01;;;;;;;20.10;9.40;;;16.40;99.90;;;;;;5054270;28;20431;-75
2022/10/13 11:05:55;;;;;;;14.20;8.30;;;16.40;99.90;;;;;;5052693;28;20552;-74
2022/10/13 11:08:36;;;;;;;13.60;9.53;;;16.40;99.90;;;;;;5052755;28;20419;-75
2022/10/13 11:11:21;;;;;;;18.20;8.40;;;16.30;99.90;;;;;;5054131;28;20460;-75
2022/10/13 11:14:05;;;;;;;14.63;9.13;;;16.30;99.90;;;;;;5053899;28;20412;-76
2022/10/13 11:16:33;;;;;;;19.30;10.33;;;16.30;99.90;;;;;;5054419;28;20938;-77
2022/10/13 11:19:05;;;;;;;14.73;9.20;;;16.20;99.90;;;;;;5054136;28;20415;-76
2022/10/13 11:22:09;;;;;;;15.30;9.30;;;16.20;99.90;;;;;;5054391;28;20420;-75
2022/10/13 11:24:35;;;;;;;13.37;8.40;;;16.20;99.90;;;;;;5053392;28;20959;-76
2022/10/13 11:27:06;;;;;;;16.13;10.60;;;16.20;99.90;;;;;;5054302;28;20426;-77
2022/10/13 11:29:45;;;;;;;23.33;11.53;;;16.30;99.90;;;;;;5054132;28;20266;-77
2022/10/13 11:32:40;;;;;;;16.70;9.47;;;16.30;99.90;;;;;;5053919;28;20459;-77
2022/10/13 11:35:06;;;;;;;14.10;9.33;;;16.30;99.90;;;;;;5054360;28;20803;-77
2022/10/13 11:38:05;;;;;;;12.93;8.40;;;16.30;99.90;;;;;;5054472;28;20445;-76
2022/10/13 11:40:33;;;;;;;11.30;9.20;;;16.30;99.90;;;;;;5051183;28;20423;-76
2022/10/13 11:43:35;;;;;;;16.00;9.40;;;16.30;99.90;;;;;;5049297;28;20454;-77
2022/10/13 11:46:07;;;;;;;15.43;8.90;;;16.30;99.90;;;;;;5050562;28;21216;-76
2022/10/13 11:49:06;;;;;;;14.17;9.10;;;16.40;99.90;;;;;;5050552;28;20532;-76
2022/10/13 11:51:32;;;;;;;15.67;8.53;;;16.40;99.90;;;;;;5048900;28;20466;-76
2022/10/13 11:54:16;;;;;;;13.53;9.00;;;16.40;99.90;;;;;;5050509;28;20420;-76
2022/10/13 11:56:46;;;;;;;21.50;9.30;;;16.50;99.90;;;;;;5050417;28;20207;-76
2022/10/13 11:59:19;;;;;;;18.83;9.40;;;16.60;99.90;;;;;;5048680;28;20443;-75
2022/10/13 12:01:45;;;;;;;15.37;8.13;;;16.70;99.90;;;;;;5032128;28;20447;-76
2022/10/13 12:04:14;;;;;;;19.93;8.90;;;16.70;99.90;;;;;;5049983;28;20516;-76
2022/10/13 12:06:41;;;;;;;16.83;8.47;;;16.80;99.90;;;;;;5048517;28;20242;-75
2022/10/13 12:09:17;;;;;;;15.40;8.87;;;16.90;99.90;;;;;;5049762;28;21343;-76
2022/10/13 12:11:43;;;;;;;13.23;9.43;;;17.00;99.90;;;;;;5049773;28;20907;-76
2022/10/13 12:14:31;;;;;;;18.17;9.20;;;17.10;99.90;;;;;;5031622;28;20432;-77
2022/10/13 12:16:59;;;;;;;17.23;9.23;;;17.10;99.90;;;;;;5049767;28;20923;-75
2022/10/13 12:19:27;;;;;;;18.90;9.77;;;17.20;99.90;;;;;;5049416;28;20873;-76
2022/10/13 12:21:55;;;;;;;11.53;8.47;;;17.20;99.90;;;;;;5047823;28;20461;-75
2022/10/13 12:24:23;;;;;;;15.37;8.87;;;17.20;99.90;;;;;;5049536;28;20452;-76
2022/10/13 12:26:50;;;;;;;14.60;8.63;;;17.20;99.90;;;;;;5049229;28;20463;-76
2022/10/13 12:29:17;;;;;;;20.30;8.93;;;17.20;99.90;;;;;;5047756;28;20424;-76
2022/10/13 12:31:45;;;;;;;13.03;8.67;;;17.20;99.90;;;;;;5049105;28;20503;-76
2022/10/13 12:34:26;;;;;;;14.07;8.30;;;17.20;99.90;;;;;;5049294;28;20424;-76
2022/10/13 12:36:54;;;;;;;18.80;8.90;;;17.30;99.90;;;;;;5049260;28;20429;-77
2022/10/13 12:39:21;;;;;;;10.37;8.30;;;17.50;99.90;;;;;;5049159;28;20482;-76
2022/10/13 12:41:47;;;;;;;18.47;10.00;;;17.60;99.90;;;;;;5047675;28;20444;-76
2022/10/13 12:44:17;;;;;;;16.37;7.20;;;17.70;99.90;;;;;;5048961;28;20429;-77
2022/10/13 12:46:45;;;;;;;12.30;8.23;;;17.80;99.90;;;;;;5049126;28;20424;-76
2022/10/13 12:49:22;;;;;;;16.50;8.47;;;17.90;99.90;;;;;;5049181;28;20426;-76